Time;durP1;ratioP1;P1;durP2;ratioP2;P2;SDS_P1;SDS_P2;PMS_P1;PMS_P2;Temp;Humidity;BMP_temperature;BMP_pressure;BME280_temperature;BME280_humidity;BME280_pressure;Samples;Min_cycle;Max_cycle;Signal;HPM_P1;HPM_P2
2023/04/06 00:01:53;;;;;;;20.65;8.40;;;;;;;;;;4862778;29;20127;-92
2023/04/06 00:04:22;;;;;;;19.30;8.43;;;;;;;;;;4864943;29;20033;-92
2023/04/06 00:06:48;;;;;;;14.80;8.60;;;;;;;;;;4862334;29;20037;-93
2023/04/06 00:09:14;;;;;;;13.93;8.13;;;;;;;;;;4867054;29;20084;-93
2023/04/06 00:11:40;;;;;;;17.90;8.70;;;;;;;;;;4881203;29;20036;-92
2023/04/06 00:14:07;;;;;;;14.75;7.80;;;;;;;;;;4865478;29;20045;-92
2023/04/06 00:16:33;;;;;;;24.85;8.63;;;;;;;;;;4865710;29;20036;-92
2023/04/06 00:18:59;;;;;;;17.98;8.65;;;;;;;;;;4874058;29;20029;-92
2023/04/06 00:21:25;;;;;;;17.80;8.70;;;;;;;;;;4875745;29;20143;-92
2023/04/06 00:23:52;;;;;;;15.80;8.13;;;;;;;;;;4865802;29;20423;-92
2023/04/06 00:26:18;;;;;;;22.73;8.93;;;;;;;;;;4876372;29;20033;-92
2023/04/06 00:28:45;;;;;;;22.27;8.20;;;;;;;;;;4862523;29;20062;-92
2023/04/06 00:31:11;;;;;;;16.38;8.10;;;;;;;;;;4865349;29;20028;-93
2023/04/06 00:33:37;;;;;;;17.60;7.90;;;;;;;;;;4866144;29;20056;-92
2023/04/06 00:36:05;;;;;;;23.40;8.90;;;;;;;;;;4862016;29;20072;-93
2023/04/06 00:38:31;;;;;;;25.10;9.25;;;;;;;;;;4862905;29;20048;-93
2023/04/06 00:40:57;;;;;;;18.42;8.27;;;;;;;;;;4860908;29;20036;-93
2023/04/06 00:43:24;;;;;;;18.88;8.43;;;;;;;;;;4865647;29;20088;-93
2023/04/06 00:45:53;;;;;;;20.13;8.57;;;;;;;;;;4874966;29;20029;-93
2023/04/06 00:48:19;;;;;;;24.63;9.25;;;;;;;;;;4865865;29;20036;-92
2023/04/06 00:50:45;;;;;;;27.02;8.02;;;;;;;;;;4861685;29;20049;-92
2023/04/06 00:53:12;;;;;;;19.40;8.23;;;;;;;;;;4861061;29;20425;-92
2023/04/06 00:55:39;;;;;;;21.88;9.85;;;;;;;;;;4858750;29;20302;-92
2023/04/06 00:58:05;;;;;;;18.02;9.05;;;;;;;;;;4880237;29;20612;-92
2023/04/06 01:00:33;;;;;;;19.08;9.40;;;;;;;;;;4877740;29;20037;-93
2023/04/06 01:02:59;;;;;;;23.80;9.52;;;;;;;;;;4878029;29;20037;-93
2023/04/06 01:05:25;;;;;;;20.85;9.13;;;;;;;;;;4859628;29;20037;-92
2023/04/06 01:07:55;;;;;;;16.77;8.05;;;;;;;;;;4863057;29;20025;-93
2023/04/06 01:10:28;;;;;;;20.70;9.35;;;;;;;;;;4860989;29;20041;-92
2023/04/06 01:12:54;;;;;;;19.45;9.15;;;;;;;;;;4860996;29;20405;-92
2023/04/06 01:15:21;;;;;;;21.52;9.98;;;;;;;;;;4861495;29;20112;-91
2023/04/06 01:17:48;;;;;;;21.20;9.13;;;;;;;;;;4876730;29;20037;-92
2023/04/06 01:20:15;;;;;;;21.02;9.82;;;;;;;;;;4875455;29;20033;-92
2023/04/06 01:22:44;;;;;;;17.77;9.02;;;;;;;;;;4861904;29;20045;-92
2023/04/06 01:25:10;;;;;;;19.42;9.18;;;;;;;;;;4863316;29;20386;-92
2023/04/06 01:27:36;;;;;;;21.55;9.77;;;;;;;;;;4863640;29;20051;-91
2023/04/06 01:30:06;;;;;;;24.15;9.80;;;;;;;;;;4862832;29;20506;-91
2023/04/06 01:32:33;;;;;;;21.30;9.73;;;;;;;;;;4856198;29;20040;-91
2023/04/06 01:35:00;;;;;;;20.10;9.30;;;;;;;;;;4862679;29;20037;-91
2023/04/06 01:37:26;;;;;;;20.38;9.27;;;;;;;;;;4875144;29;20053;-91
2023/04/06 01:39:53;;;;;;;20.52;9.63;;;;;;;;;;4865542;29;20069;-91
2023/04/06 01:42:19;;;;;;;25.25;11.10;;;;;;;;;;4861720;29;20055;-91
2023/04/06 01:44:45;;;;;;;21.00;9.57;;;;;;;;;;4861508;29;20603;-91
2023/04/06 01:47:12;;;;;;;18.38;9.30;;;;;;;;;;4861160;29;20487;-91
2023/04/06 01:49:38;;;;;;;22.85;9.50;;;;;;;;;;4861110;29;20494;-91
2023/04/06 01:52:13;;;;;;;24.05;10.18;;;;;;;;;;4876013;29;20381;-91
2023/04/06 01:54:39;;;;;;;;;;;;;;;;;;4861255;29;20056;-91
2023/04/06 01:57:08;;;;;;;18.98;9.65;;;;;;;;;;4860593;29;20395;-91
2023/04/06 01:59:34;;;;;;;21.27;9.70;;;;;;;;;;4875520;29;20045;-91
2023/04/06 02:02:00;;;;;;;19.85;9.13;;;;;;;;;;4856572;29;20033;-92
2023/04/06 02:04:26;;;;;;;21.58;9.82;;;;;;;;;;4859378;29;20166;-91
2023/04/06 02:06:52;;;;;;;24.77;9.70;;;;;;;;;;4859224;29;20516;-91
2023/04/06 02:09:18;;;;;;;22.10;9.93;;;;;;;;;;4860053;29;20036;-92
2023/04/06 02:11:47;;;;;;;16.23;9.57;;;;;;;;;;4874034;29;20041;-89
2023/04/06 02:14:13;;;;;;;17.65;8.57;;;;;;;;;;4862275;29;20080;-90
2023/04/06 02:16:39;;;;;;;19.63;8.70;;;;;;;;;;4874685;29;20096;-90
2023/04/06 02:19:06;;;;;;;19.83;9.40;;;;;;;;;;4860944;29;20079;-89
2023/04/06 02:21:32;;;;;;;25.58;9.50;;;;;;;;;;4874543;29;20539;-90
2023/04/06 02:23:58;;;;;;;19.35;9.50;;;;;;;;;;4875745;29;20039;-90
2023/04/06 02:26:24;;;;;;;19.20;9.15;;;;;;;;;;4861109;29;20048;-91
2023/04/06 02:28:50;;;;;;;20.83;9.70;;;;;;;;;;4876436;29;20025;-91
2023/04/06 02:31:16;;;;;;;16.55;8.90;;;;;;;;;;4862861;29;20037;-91
2023/04/06 02:33:43;;;;;;;23.45;9.85;;;;;;;;;;4859083;29;20057;-92
2023/04/06 02:36:09;;;;;;;25.55;9.90;;;;;;;;;;4879825;29;20021;-91
2023/04/06 02:38:35;;;;;;;25.60;9.20;;;;;;;;;;4878014;29;20037;-91
2023/04/06 02:41:01;;;;;;;17.90;9.43;;;;;;;;;;4876433;29;20044;-91
2023/04/06 02:43:28;;;;;;;20.30;9.60;;;;;;;;;;4863990;29;20039;-91
2023/04/06 02:45:54;;;;;;;22.38;9.95;;;;;;;;;;4860329;29;20134;-90
2023/04/06 02:48:20;;;;;;;22.88;9.95;;;;;;;;;;4861704;29;20044;-90
2023/04/06 02:50:49;;;;;;;21.05;10.13;;;;;;;;;;4864673;29;20045;-90
2023/04/06 02:53:18;;;;;;;27.20;9.52;;;;;;;;;;4889169;29;20032;-92
2023/04/06 02:55:44;;;;;;;17.38;9.18;;;;;;;;;;4874705;29;20067;-91
2023/04/06 02:58:10;;;;;;;23.90;9.90;;;;;;;;;;4861094;29;20069;-92
2023/04/06 03:00:38;;;;;;;19.20;10.10;;;;;;;;;;4872017;29;20037;-91
2023/04/06 03:03:04;;;;;;;19.27;9.10;;;;;;;;;;4864437;29;20139;-91
2023/04/06 03:05:30;;;;;;;20.48;10.07;;;;;;;;;;4861697;29;20043;-91
2023/04/06 03:07:56;;;;;;;16.50;9.30;;;;;;;;;;4866029;29;20029;-91
2023/04/06 03:10:23;;;;;;;18.60;9.90;;;;;;;;;;4861895;29;20044;-92
2023/04/06 03:12:49;;;;;;;23.48;10.10;;;;;;;;;;4861161;29;20036;-92
2023/04/06 03:15:15;;;;;;;17.70;8.93;;;;;;;;;;4860454;29;20044;-92
2023/04/06 03:17:41;;;;;;;19.30;10.13;;;;;;;;;;4860914;29;20379;-90
2023/04/06 03:20:11;;;;;;;22.50;10.05;;;;;;;;;;4857507;29;20048;-91
2023/04/06 03:22:49;;;;;;;24.70;10.02;;;;;;;;;;4879003;29;20044;-94
2023/04/06 03:25:15;;;;;;;20.38;10.05;;;;;;;;;;4861174;29;20056;-92
2023/04/06 03:27:41;;;;;;;25.00;10.32;;;;;;;;;;4857106;29;20061;-91
2023/04/06 03:30:08;;;;;;;20.63;10.77;;;;;;;;;;4876668;29;20029;-91
2023/04/06 03:32:35;;;;;;;23.55;9.85;;;;;;;;;;4861234;29;20047;-91
2023/04/06 03:35:03;;;;;;;21.45;9.55;;;;;;;;;;4870069;29;20113;-91
2023/04/06 03:37:30;;;;;;;22.63;9.98;;;;;;;;;;4869807;29;20045;-92
2023/04/06 03:39:59;;;;;;;23.25;10.38;;;;;;;;;;4862621;29;20103;-92
2023/04/06 03:42:26;;;;;;;21.73;10.60;;;;;;;;;;4863369;29;20637;-91
2023/04/06 03:44:53;;;;;;;27.00;10.00;;;;;;;;;;4864641;29;20034;-91
2023/04/06 03:47:19;;;;;;;22.17;10.10;;;;;;;;;;4860927;29;20029;-92
2023/04/06 03:49:46;;;;;;;23.65;10.07;;;;;;;;;;4846902;29;20486;-91
2023/04/06 03:52:12;;;;;;;19.60;9.40;;;;;;;;;;4847031;29;20608;-92
2023/04/06 03:54:44;;;;;;;30.35;10.75;;;;;;;;;;4847866;29;20117;-91
2023/04/06 03:57:10;;;;;;;26.25;10.80;;;;;;;;;;4865414;29;20405;-92
2023/04/06 03:59:43;;;;;;;20.60;10.25;;;;;;;;;;4861049;29;20045;-92
2023/04/06 04:02:10;;;;;;;24.58;10.93;;;;;;;;;;4856099;29;20491;-91
2023/04/06 04:04:36;;;;;;;22.63;10.75;;;;;;;;;;4861814;29;20037;-91
2023/04/06 04:07:02;;;;;;;24.83;9.77;;;;;;;;;;4861475;29;20041;-91
2023/04/06 04:09:28;;;;;;;19.38;9.55;;;;;;;;;;4848529;29;20033;-91
2023/04/06 04:11:54;;;;;;;22.80;9.13;;;;;;;;;;4850643;29;20562;-91
2023/04/06 04:14:27;;;;;;;19.80;9.50;;;;;;;;;;4868342;29;21214;-90
2023/04/06 04:16:53;;;;;;;19.67;11.07;;;;;;;;;;4863893;29;20075;-89
2023/04/06 04:19:26;;;;;;;19.38;9.65;;;;;;;;;;4877228;29;20984;-90
2023/04/06 04:21:52;;;;;;;21.13;10.02;;;;;;;;;;4879155;29;20044;-90
2023/04/06 04:24:18;;;;;;;20.95;10.02;;;;;;;;;;4851776;29;20014;-90
2023/04/06 04:26:47;;;;;;;19.17;10.35;;;;;;;;;;4869947;29;20066;-90
2023/04/06 04:29:29;;;;;;;22.60;10.95;;;;;;;;;;4867374;29;20043;-91
2023/04/06 04:31:58;;;;;;;24.42;10.52;;;;;;;;;;4871469;29;20048;-92
2023/04/06 04:34:25;;;;;;;23.17;9.57;;;;;;;;;;4846899;29;20049;-91
2023/04/06 04:36:54;;;;;;;21.13;9.63;;;;;;;;;;4851961;29;20143;-90
2023/04/06 04:39:20;;;;;;;24.23;9.60;;;;;;;;;;4862516;29;20033;-89
2023/04/06 04:41:46;;;;;;;22.00;8.40;;;;;;;;;;4878933;29;20033;-90
2023/04/06 04:44:13;;;;;;;19.08;9.05;;;;;;;;;;4864663;29;20117;-91
2023/04/06 04:46:39;;;;;;;28.88;8.82;;;;;;;;;;4878457;29;20124;-90
2023/04/06 04:49:10;;;;;;;23.70;9.10;;;;;;;;;;4864077;29;20033;-90
2023/04/06 04:51:36;;;;;;;25.40;10.15;;;;;;;;;;4862096;29;20585;-90
2023/04/06 04:54:02;;;;;;;20.33;9.63;;;;;;;;;;4879392;29;20036;-90
2023/04/06 04:56:29;;;;;;;25.88;9.18;;;;;;;;;;4898764;29;20470;-89
2023/04/06 04:59:03;;;;;;;20.02;8.70;;;;;;;;;;4885261;29;20142;-91
2023/04/06 05:01:29;;;;;;;17.50;8.63;;;;;;;;;;4882621;29;20401;-90
2023/04/06 05:03:55;;;;;;;19.58;8.60;;;;;;;;;;4866861;29;20050;-90
2023/04/06 05:06:22;;;;;;;17.42;8.63;;;;;;;;;;4863496;29;20494;-91
2023/04/06 05:08:57;;;;;;;18.67;8.57;;;;;;;;;;4870559;29;20039;-92
2023/04/06 05:11:23;;;;;;;;;;;;;;;;;;4866965;29;20017;-91
2023/04/06 05:13:49;;;;;;;22.42;8.88;;;;;;;;;;4885647;29;19989;-91
2023/04/06 05:16:15;;;;;;;23.48;8.90;;;;;;;;;;4865354;29;20120;-92
2023/04/06 05:18:42;;;;;;;22.08;9.20;;;;;;;;;;4892589;29;20024;-94
2023/04/06 05:21:11;;;;;;;16.98;8.68;;;;;;;;;;4875948;29;20048;-93
2023/04/06 05:23:37;;;;;;;20.90;9.75;;;;;;;;;;4894243;29;20147;-93
2023/04/06 05:26:06;;;;;;;23.45;9.13;;;;;;;;;;4893374;29;20036;-92
2023/04/06 05:28:36;;;;;;;20.88;8.23;;;;;;;;;;4874230;29;20117;-95
2023/04/06 05:31:05;;;;;;;26.27;9.60;;;;;;;;;;4878240;29;20033;-93
2023/04/06 05:33:32;;;;;;;23.85;8.00;;;;;;;;;;4894027;29;20109;-93
2023/04/06 05:36:00;;;;;;;37.53;8.38;;;;;;;;;;4875036;29;20057;-92
2023/04/06 05:38:33;;;;;;;21.15;8.63;;;;;;;;;;4875119;29;20076;-93
2023/04/06 05:40:59;;;;;;;21.63;8.50;;;;;;;;;;4887662;29;20033;-92
2023/04/06 05:43:31;;;;;;;26.52;8.43;;;;;;;;;;4887413;29;20065;-92
2023/04/06 05:45:57;;;;;;;25.90;8.27;;;;;;;;;;4872304;29;20074;-92
2023/04/06 05:48:23;;;;;;;21.08;8.05;;;;;;;;;;4871387;29;20028;-92
2023/04/06 05:50:55;;;;;;;17.15;8.38;;;;;;;;;;4882123;29;20025;-92
2023/04/06 05:53:22;;;;;;;21.25;8.63;;;;;;;;;;4881040;29;20029;-94
2023/04/06 05:55:48;;;;;;;23.92;7.75;;;;;;;;;;4866817;29;20048;-92
2023/04/06 05:58:14;;;;;;;27.77;9.40;;;;;;;;;;4862114;29;20108;-91
2023/04/06 06:00:42;;;;;;;19.88;8.95;;;;;;;;;;4862151;29;20076;-91
2023/04/06 06:03:08;;;;;;;23.88;8.18;;;;;;;;;;4861341;29;20033;-91
2023/04/06 06:05:35;;;;;;;20.83;7.90;;;;;;;;;;4878231;29;20124;-93
2023/04/06 06:08:02;;;;;;;19.30;7.63;;;;;;;;;;4862654;29;20125;-90
2023/04/06 06:10:28;;;;;;;25.17;7.93;;;;;;;;;;4879194;29;20048;-92
2023/04/06 06:12:54;;;;;;;28.20;7.40;;;;;;;;;;4880147;29;20033;-91
2023/04/06 06:15:20;;;;;;;19.10;8.57;;;;;;;;;;4874153;29;20049;-91
2023/04/06 06:17:46;;;;;;;47.67;9.48;;;;;;;;;;4860049;29;20041;-91
2023/04/06 06:20:14;;;;;;;18.85;7.55;;;;;;;;;;4877947;29;20043;-92
2023/04/06 06:22:40;;;;;;;25.17;8.13;;;;;;;;;;4865892;29;20045;-91
2023/04/06 06:25:06;;;;;;;16.52;8.80;;;;;;;;;;4887776;29;20056;-91
2023/04/06 06:27:36;;;;;;;15.50;7.13;;;;;;;;;;4869299;29;20514;-91
2023/04/06 06:30:02;;;;;;;16.15;6.70;;;;;;;;;;4874336;29;20029;-92
2023/04/06 06:32:29;;;;;;;12.32;7.25;;;;;;;;;;4856752;29;20033;-91
2023/04/06 06:35:05;;;;;;;13.38;7.38;;;;;;;;;;4875754;29;20521;-91
2023/04/06 06:37:31;;;;;;;12.30;7.65;;;;;;;;;;4857241;29;20053;-91
2023/04/06 06:39:57;;;;;;;22.23;7.10;;;;;;;;;;4862367;29;20522;-91
2023/04/06 06:42:23;;;;;;;17.33;8.27;;;;;;;;;;4876445;29;20032;-91
2023/04/06 06:44:52;;;;;;;28.05;7.78;;;;;;;;;;4870209;29;20033;-92
2023/04/06 06:47:18;;;;;;;16.33;7.85;;;;;;;;;;4866568;29;20028;-91
2023/04/06 06:49:44;;;;;;;12.02;7.78;;;;;;;;;;4862187;29;20060;-91
2023/04/06 06:52:13;;;;;;;18.20;7.55;;;;;;;;;;4879072;29;20052;-92
2023/04/06 06:54:39;;;;;;;15.30;8.30;;;;;;;;;;4878936;29;20047;-92
2023/04/06 06:57:08;;;;;;;17.38;7.65;;;;;;;;;;4862898;29;20116;-92
2023/04/06 06:59:34;;;;;;;14.07;7.97;;;;;;;;;;4863564;29;20052;-91
2023/04/06 07:02:04;;;;;;;18.98;8.18;;;;;;;;;;4864455;29;20445;-92
2023/04/06 07:04:30;;;;;;;15.95;8.10;;;;;;;;;;4863657;29;20044;-92
2023/04/06 07:06:56;;;;;;;18.08;7.75;;;;;;;;;;4862040;29;20036;-91
2023/04/06 07:09:26;;;;;;;16.10;8.18;;;;;;;;;;4863020;29;20053;-92
2023/04/06 07:11:52;;;;;;;21.05;8.57;;;;;;;;;;4867415;29;20501;-91
2023/04/06 07:14:18;;;;;;;16.13;7.53;;;;;;;;;;4879884;29;20047;-91
2023/04/06 07:16:48;;;;;;;12.52;6.63;;;;;;;;;;4864707;29;20034;-92
2023/04/06 07:19:15;;;;;;;15.07;7.65;;;;;;;;;;4877714;29;20048;-92
2023/04/06 07:21:44;;;;;;;12.90;7.95;;;;;;;;;;4863423;29;20109;-94
2023/04/06 07:24:10;;;;;;;12.18;7.88;;;;;;;;;;4865600;29;20120;-92
2023/04/06 07:26:36;;;;;;;22.05;7.45;;;;;;;;;;4862803;29;20045;-92
2023/04/06 07:29:02;;;;;;;19.42;8.45;;;;;;;;;;4864473;29;20471;-91
2023/04/06 07:31:30;;;;;;;22.15;8.40;;;;;;;;;;4862220;29;20046;-91
2023/04/06 07:34:01;;;;;;;14.77;7.78;;;;;;;;;;4864138;29;20041;-92
2023/04/06 07:36:27;;;;;;;14.38;8.07;;;;;;;;;;4877836;29;20132;-91
2023/04/06 07:38:54;;;;;;;11.32;7.15;;;;;;;;;;4876150;29;20057;-91
2023/04/06 07:41:21;;;;;;;13.65;7.15;;;;;;;;;;4888297;29;20036;-90
2023/04/06 07:43:47;;;;;;;17.48;8.30;;;;;;;;;;4880236;29;20060;-92
2023/04/06 07:46:13;;;;;;;16.20;8.52;;;;;;;;;;4866804;29;20550;-92
2023/04/06 07:48:39;;;;;;;12.40;7.68;;;;;;;;;;4863944;29;20033;-92
2023/04/06 07:51:06;;;;;;;15.38;6.82;;;;;;;;;;4862305;29;20458;-92
2023/04/06 07:53:32;;;;;;;12.77;7.95;;;;;;;;;;4881291;29;20762;-92
2023/04/06 07:56:00;;;;;;;9.98;7.05;;;;;;;;;;4858716;29;20044;-92
2023/04/06 07:58:26;;;;;;;16.80;7.68;;;;;;;;;;4860325;29;20056;-92
2023/04/06 08:00:56;;;;;;;14.18;8.40;;;;;;;;;;4861303;29;20490;-91
2023/04/06 08:03:33;;;;;;;13.80;7.93;;;;;;;;;;4879526;29;20040;-92
2023/04/06 08:06:00;;;;;;;17.38;8.88;;;;;;;;;;4863567;29;20040;-92
2023/04/06 08:08:26;;;;;;;13.90;7.68;;;;;;;;;;4863535;29;20107;-92
2023/04/06 08:10:55;;;;;;;16.05;7.65;;;;;;;;;;4863838;29;20089;-91
2023/04/06 08:13:24;;;;;;;20.20;8.90;;;;;;;;;;4863442;29;20029;-91
2023/04/06 08:15:50;;;;;;;20.98;8.85;;;;;;;;;;4865401;29;20136;-91
2023/04/06 08:18:19;;;;;;;21.10;9.20;;;;;;;;;;4860338;29;20028;-92
2023/04/06 08:20:46;;;;;;;38.30;9.77;;;;;;;;;;4866377;29;20045;-92
2023/04/06 08:23:12;;;;;;;16.77;8.57;;;;;;;;;;4886326;29;20033;-91
2023/04/06 08:28:25;;;;;;;16.15;9.00;;;;;;;;;;4833644;29;20046;-91
2023/04/06 08:31:05;;;;;;;12.38;7.78;;;;;;;;;;4835098;29;20037;-92
2023/04/06 08:33:39;;;;;;;13.98;7.57;;;;;;;;;;4834063;29;20029;-92
2023/04/06 08:36:22;;;;;;;18.88;7.80;;;;;;;;;;4877680;29;20537;-92
2023/04/06 08:39:11;;;;;;;18.50;8.20;;;;;;;;;;4871482;29;20587;-92
2023/04/06 08:44:37;;;;;;;14.43;8.20;;;;;;;;;;4880674;29;20040;-92
2023/04/06 08:47:05;;;;;;;22.50;10.25;;;;;;;;;;4876547;29;20025;-92
2023/04/06 08:52:21;;;;;;;21.03;9.07;;;;;;;;;;4885700;29;20069;-92
2023/04/06 08:54:49;;;;;;;14.13;8.63;;;;;;;;;;4876514;29;20122;-92
2023/04/06 08:57:20;;;;;;;26.55;8.93;;;;;;;;;;4893850;29;20650;-93
2023/04/06 08:59:55;;;;;;;16.80;8.90;;;;;;;;;;4863060;29;20123;-94
2023/04/06 09:02:25;;;;;;;24.57;9.37;;;;;;;;;;4875345;29;20384;-93
2023/04/06 09:05:10;;;;;;;;;;;;;;;;;;;;;
2023/04/06 09:08:25;;;;;;;12.40;7.65;;;;;;;;;;4891625;29;20109;-92
2023/04/06 09:10:51;;;;;;;16.08;7.80;;;;;;;;;;4816462;29;20123;-91
2023/04/06 09:13:37;;;;;;;19.58;8.15;;;;;;;;;;4830659;29;20551;-92
2023/04/06 09:19:20;;;;;;;17.40;8.90;;;;;;;;;;4835725;29;20115;-93
2023/04/06 09:21:46;;;;;;;14.32;7.95;;;;;;;;;;4834212;29;20042;-92
2023/04/06 09:24:25;;;;;;;15.68;8.57;;;;;;;;;;4821443;29;20139;-92
2023/04/06 09:26:55;;;;;;;16.00;8.73;;;;;;;;;;4847671;29;20041;-92
2023/04/06 09:29:29;;;;;;;21.73;7.75;;;;;;;;;;4872303;29;20566;-92
2023/04/06 09:35:15;;;;;;;14.93;8.65;;;;;;;;;;4895883;29;20075;-92
2023/04/06 09:37:41;;;;;;;16.45;9.20;;;;;;;;;;4873266;29;20095;-92
2023/04/06 09:40:22;;;;;;;17.90;8.50;;;;;;;;;;4873990;29;20080;-93
2023/04/06 09:42:53;;;;;;;15.60;8.27;;;;;;;;;;4881955;29;20057;-92
2023/04/06 09:45:20;;;;;;;16.67;9.05;;;;;;;;;;4874836;29;20025;-92
2023/04/06 09:47:47;;;;;;;15.77;8.43;;;;;;;;;;4882359;29;20029;-91
2023/04/06 09:50:17;;;;;;;16.63;8.82;;;;;;;;;;4877232;29;20036;-91
2023/04/06 09:52:55;;;;;;;17.85;8.50;;;;;;;;;;4860264;29;20041;-90
2023/04/06 09:55:28;;;;;;;18.98;9.18;;;;;;;;;;4878159;29;20453;-92
2023/04/06 09:58:30;;;;;;;17.73;8.23;;;;;;;;;;4879706;29;20044;-91
2023/04/06 10:01:05;;;;;;;22.27;8.90;;;;;;;;;;4820931;29;20045;-93
2023/04/06 10:03:44;;;;;;;16.77;8.65;;;;;;;;;;4871657;29;20052;-92
2023/04/06 10:06:14;;;;;;;16.73;8.25;;;;;;;;;;4869173;29;20129;-93
2023/04/06 10:08:43;;;;;;;17.92;10.02;;;;;;;;;;4878791;29;20091;-92
2023/04/06 10:11:11;;;;;;;14.50;8.90;;;;;;;;;;4870968;29;20040;-93
2023/04/06 10:13:49;;;;;;;14.60;8.60;;;;;;;;;;4880442;29;20061;-92
2023/04/06 10:19:19;;;;;;;18.50;10.05;;;;;;;;;;4870808;29;20044;-93
2023/04/06 10:21:57;;;;;;;21.15;10.88;;;;;;;;;;4865794;29;20081;-93
2023/04/06 10:25:00;;;;;;;22.50;9.02;;;;;;;;;;4879463;29;20616;-91
2023/04/06 10:27:38;;;;;;;18.73;10.20;;;;;;;;;;4887988;29;20044;-91
2023/04/06 10:33:25;;;;;;;22.98;11.70;;;;;;;;;;4850939;29;20048;-92
2023/04/06 10:36:00;;;;;;;19.90;10.55;;;;;;;;;;4900421;29;20040;-92
2023/04/06 10:38:48;;;;;;;20.08;9.57;;;;;;;;;;4887059;29;20049;-91
2023/04/06 10:41:20;;;;;;;20.77;11.10;;;;;;;;;;4884617;29;20048;-91
2023/04/06 10:43:55;;;;;;;24.98;11.65;;;;;;;;;;4884910;29;20050;-92
2023/04/06 10:46:26;;;;;;;17.88;9.52;;;;;;;;;;4866391;29;20033;-91
2023/04/06 10:48:52;;;;;;;21.58;11.32;;;;;;;;;;4876473;29;20032;-91
2023/04/06 10:51:28;;;;;;;19.38;11.77;;;;;;;;;;4861021;29;20514;-91
2023/04/06 10:53:58;;;;;;;26.67;12.82;;;;;;;;;;4866379;29;20033;-92
2023/04/06 10:56:33;;;;;;;29.63;13.25;;;;;;;;;;4876839;29;20033;-92
2023/04/06 10:58:59;;;;;;;23.88;12.43;;;;;;;;;;4877882;29;20584;-92
2023/04/06 11:01:27;;;;;;;23.55;12.10;;;;;;;;;;4863096;29;20037;-92
2023/04/06 11:04:01;;;;;;;25.52;12.75;;;;;;;;;;4862269;29;20037;-92
2023/04/06 11:06:35;;;;;;;40.92;15.15;;;;;;;;;;4876927;29;20462;-92
2023/04/06 11:09:01;;;;;;;21.17;12.02;;;;;;;;;;4868305;29;20447;-92
2023/04/06 11:11:27;;;;;;;23.50;12.13;;;;;;;;;;4875446;29;20029;-92
2023/04/06 11:13:54;;;;;;;25.17;13.88;;;;;;;;;;4863232;29;20041;-92
2023/04/06 11:16:21;;;;;;;26.88;14.48;;;;;;;;;;4864954;29;20057;-92
2023/04/06 11:18:58;;;;;;;29.27;14.65;;;;;;;;;;4877403;29;20040;-92
2023/04/06 11:22:07;;;;;;;21.55;13.68;;;;;;;;;;4866592;29;21044;-93
2023/04/06 11:24:39;;;;;;;26.17;13.57;;;;;;;;;;4869126;29;20032;-92
2023/04/06 11:27:10;;;;;;;29.38;15.88;;;;;;;;;;4870759;29;20502;-92
2023/04/06 11:29:48;;;;;;;35.05;18.40;;;;;;;;;;4877533;29;20453;-92
2023/04/06 11:32:41;;;;;;;35.42;17.77;;;;;;;;;;4880863;29;20252;-94
2023/04/06 11:35:12;;;;;;;47.50;20.00;;;;;;;;;;4874254;29;20037;-91
2023/04/06 11:37:39;;;;;;;38.13;18.65;;;;;;;;;;4877255;29;20471;-91
2023/04/06 11:40:18;;;;;;;36.00;18.75;;;;;;;;;;4879359;29;20055;-92
2023/04/06 11:42:53;;;;;;;35.90;18.55;;;;;;;;;;4876805;29;20037;-91
2023/04/06 11:45:22;;;;;;;35.33;17.65;;;;;;;;;;4895745;29;20037;-92
2023/04/06 11:47:57;;;;;;;41.78;18.70;;;;;;;;;;4882933;29;20021;-92
2023/04/06 11:50:30;;;;;;;40.53;18.15;;;;;;;;;;4899473;29;20039;-93
2023/04/06 11:53:01;;;;;;;31.98;17.52;;;;;;;;;;4888107;29;20048;-92
2023/04/06 11:56:01;;;;;;;41.45;19.42;;;;;;;;;;4872756;29;20060;-93
2023/04/06 11:58:36;;;;;;;35.72;19.52;;;;;;;;;;4874950;29;20407;-92
2023/04/06 12:01:06;;;;;;;40.75;16.75;;;;;;;;;;4876532;29;20044;-92
2023/04/06 12:03:41;;;;;;;38.92;21.02;;;;;;;;;;4861288;29;20041;-92
2023/04/06 12:06:07;;;;;;;34.42;15.57;;;;;;;;;;4869561;29;20025;-92
2023/04/06 12:08:34;;;;;;;53.47;20.20;;;;;;;;;;4865699;29;20188;-91
2023/04/06 12:11:00;;;;;;;34.00;18.73;;;;;;;;;;4877293;29;20413;-92
2023/04/06 12:13:27;;;;;;;41.17;19.67;;;;;;;;;;4868411;29;20049;-92
2023/04/06 12:15:56;;;;;;;40.78;18.70;;;;;;;;;;4862355;29;20559;-92
2023/04/06 12:18:25;;;;;;;37.03;18.67;;;;;;;;;;4864515;29;20089;-91
2023/04/06 12:21:10;;;;;;;36.47;18.02;;;;;;;;;;4867708;29;20049;-91
2023/04/06 12:23:54;;;;;;;43.70;19.45;;;;;;;;;;4884483;29;20030;-91
2023/04/06 12:26:44;;;;;;;32.78;18.50;;;;;;;;;;4885276;29;20056;-91
2023/04/06 12:29:12;;;;;;;35.60;18.77;;;;;;;;;;4880259;29;20062;-90
2023/04/06 12:31:40;;;;;;;42.70;19.27;;;;;;;;;;4866489;29;20034;-91
2023/04/06 12:34:11;;;;;;;37.90;16.15;;;;;;;;;;4863417;29;20162;-91
2023/04/06 12:36:40;;;;;;;37.15;19.52;;;;;;;;;;4861072;29;20109;-91
2023/04/06 12:39:11;;;;;;;39.65;20.38;;;;;;;;;;4879611;29;20045;-91
2023/04/06 12:41:45;;;;;;;36.67;18.67;;;;;;;;;;4879816;29;20118;-92
2023/04/06 12:44:12;;;;;;;41.60;20.23;;;;;;;;;;4862861;29;20048;-92
2023/04/06 12:46:38;;;;;;;35.13;19.02;;;;;;;;;;4874081;29;20041;-92
2023/04/06 12:49:04;;;;;;;36.58;19.20;;;;;;;;;;4883866;29;20152;-91
2023/04/06 12:51:31;;;;;;;29.38;14.15;;;;;;;;;;4875062;29;20045;-91
2023/04/06 12:53:58;;;;;;;41.13;18.80;;;;;;;;;;4882419;29;20123;-92
2023/04/06 12:56:27;;;;;;;34.55;16.00;;;;;;;;;;4879256;29;20036;-93
2023/04/06 12:58:56;;;;;;;37.97;18.27;;;;;;;;;;4892632;29;20040;-90
2023/04/06 13:01:28;;;;;;;35.75;16.10;;;;;;;;;;4867712;29;20044;-90
2023/04/06 13:03:57;;;;;;;30.52;14.38;;;;;;;;;;4876619;29;20044;-91
2023/04/06 13:06:38;;;;;;;40.50;18.48;;;;;;;;;;4878659;29;20097;-91
2023/04/06 13:09:23;;;;;;;35.85;18.88;;;;;;;;;;4859540;29;20037;-90
2023/04/06 13:11:49;;;;;;;36.40;17.65;;;;;;;;;;4875186;29;20037;-92
2023/04/06 13:14:15;;;;;;;35.50;19.17;;;;;;;;;;4861050;29;20029;-91
2023/04/06 13:16:45;;;;;;;37.00;18.55;;;;;;;;;;4856368;29;20458;-91
2023/04/06 13:19:12;;;;;;;38.47;19.10;;;;;;;;;;4878839;29;20041;-91
2023/04/06 13:21:40;;;;;;;44.40;19.00;;;;;;;;;;4879645;29;20093;-92
2023/04/06 13:24:06;;;;;;;37.40;17.50;;;;;;;;;;4863952;29;20522;-91
2023/04/06 13:26:35;;;;;;;34.53;16.40;;;;;;;;;;4861293;29;20070;-90
2023/04/06 13:29:08;;;;;;;43.15;19.42;;;;;;;;;;4864338;29;20508;-91
2023/04/06 13:31:34;;;;;;;38.20;19.55;;;;;;;;;;4863928;29;20040;-90
2023/04/06 13:34:00;;;;;;;39.05;18.98;;;;;;;;;;4860950;29;20048;-91
2023/04/06 13:36:56;;;;;;;37.95;18.30;;;;;;;;;;4866932;29;20137;-90
2023/04/06 13:39:26;;;;;;;40.30;19.45;;;;;;;;;;4824396;29;20046;-91
2023/04/06 13:42:09;;;;;;;26.55;13.23;;;;;;;;;;4809574;29;20053;-90
2023/04/06 13:44:46;;;;;;;34.55;15.48;;;;;;;;;;4836118;29;20053;-91
2023/04/06 13:47:13;;;;;;;32.78;15.63;;;;;;;;;;4858427;29;20511;-90
2023/04/06 13:49:39;;;;;;;28.38;15.30;;;;;;;;;;4860845;29;20049;-90
2023/04/06 13:52:05;;;;;;;34.13;18.15;;;;;;;;;;4841875;29;20171;-90
2023/04/06 13:54:32;;;;;;;38.80;19.90;;;;;;;;;;4854053;29;20152;-91
2023/04/06 13:56:58;;;;;;;37.33;17.50;;;;;;;;;;4842801;29;20079;-91
2023/04/06 13:59:27;;;;;;;36.40;16.90;;;;;;;;;;4835780;29;20041;-91
2023/04/06 14:01:53;;;;;;;36.53;19.83;;;;;;;;;;4844359;29;20061;-90
2023/04/06 14:04:31;;;;;;;29.55;13.23;;;;;;;;;;4841310;29;20153;-90
2023/04/06 14:06:58;;;;;;;42.65;19.65;;;;;;;;;;4840893;29;20058;-91
2023/04/06 14:09:24;;;;;;;34.83;17.85;;;;;;;;;;4858373;29;20037;-91
2023/04/06 14:11:54;;;;;;;38.08;17.50;;;;;;;;;;4843940;29;20479;-90
2023/04/06 14:14:24;;;;;;;31.15;16.15;;;;;;;;;;4858226;29;20562;-91
2023/04/06 14:16:50;;;;;;;28.30;14.60;;;;;;;;;;4858741;29;20033;-90
2023/04/06 14:19:21;;;;;;;32.63;11.32;;;;;;;;;;4861072;29;20366;-92
2023/04/06 14:21:59;;;;;;;34.97;15.35;;;;;;;;;;4867512;29;20031;-91
2023/04/06 14:24:26;;;;;;;32.58;14.38;;;;;;;;;;4859774;29;20073;-91
2023/04/06 14:26:52;;;;;;;25.50;13.45;;;;;;;;;;4875014;29;20370;-91
2023/04/06 14:29:20;;;;;;;19.20;9.07;;;;;;;;;;4860356;29;20112;-91
2023/04/06 14:31:48;;;;;;;25.10;12.35;;;;;;;;;;4859338;29;20045;-91
2023/04/06 14:34:17;;;;;;;25.90;10.68;;;;;;;;;;4874308;29;20596;-92
2023/04/06 14:36:43;;;;;;;37.80;14.57;;;;;;;;;;4858701;29;20045;-90
2023/04/06 14:39:17;;;;;;;23.65;12.68;;;;;;;;;;4859463;29;20040;-91
2023/04/06 14:41:51;;;;;;;19.35;9.65;;;;;;;;;;4858081;29;20490;-90
2023/04/06 14:44:20;;;;;;;30.67;15.07;;;;;;;;;;4872091;29;20037;-91
2023/04/06 14:46:47;;;;;;;30.75;14.30;;;;;;;;;;4874086;29;20548;-91
2023/04/06 14:49:20;;;;;;;25.65;12.77;;;;;;;;;;4862394;29;20037;-90
2023/04/06 14:51:46;;;;;;;25.80;11.65;;;;;;;;;;4859131;29;20041;-90
2023/04/06 14:54:12;;;;;;;26.23;12.02;;;;;;;;;;4858926;29;20029;-91
2023/04/06 14:56:38;;;;;;;22.38;11.10;;;;;;;;;;4861547;29;20112;-91
2023/04/06 14:59:05;;;;;;;33.63;13.95;;;;;;;;;;4861024;29;20109;-90
2023/04/06 15:01:37;;;;;;;20.48;12.48;;;;;;;;;;4858245;29;20391;-92